createdAt,value
2018-05-04T12:05:26.719Z,5484
2018-05-04T12:06:28.581Z,5248
2018-05-04T12:07:30.463Z,5244
2018-05-04T12:08:32.325Z,5252
2018-05-04T12:09:34.142Z,5252
2018-05-04T12:10:35.966Z,5264
2018-05-04T12:11:37.855Z,5276
2018-05-04T12:12:39.723Z,5288
2018-05-04T12:13:41.615Z,5288
2018-05-04T12:14:55.760Z,5256
2018-05-04T12:15:57.650Z,5236
2018-05-04T12:16:59.563Z,5220
2018-05-04T12:18:01.434Z,5204
2018-05-04T12:19:03.247Z,5196
2018-05-04T12:20:05.074Z,5200
2018-05-04T12:21:06.947Z,5208
2018-05-04T12:22:08.820Z,5220
2018-05-04T12:23:10.710Z,5220
2018-05-04T12:24:24.860Z,5232
2018-05-04T12:25:26.755Z,5256
2018-05-04T12:26:28.647Z,5260
2018-05-04T12:27:30.523Z,5244
2018-05-04T12:28:32.363Z,5236
2018-05-04T12:29:34.196Z,5228
2018-05-04T12:30:36.105Z,5212
2018-05-04T12:31:37.962Z,5208
2018-05-04T12:32:39.833Z,5204
2018-05-04T12:33:53.977Z,5188
2018-05-04T12:34:55.866Z,5200
2018-05-04T12:35:57.763Z,5216
2018-05-04T12:36:59.646Z,5236
2018-05-04T12:38:01.444Z,5252
2018-05-04T12:39:03.255Z,5248
2018-05-04T12:40:05.146Z,5228
2018-05-04T12:41:07.009Z,5196
2018-05-04T12:42:08.882Z,5184
2018-05-04T12:43:23.027Z,5176
2018-05-04T12:44:24.912Z,5200
2018-05-04T12:45:26.798Z,5220
2018-05-04T12:46:28.669Z,5240
2018-05-04T12:47:30.479Z,5248
2018-05-04T12:48:32.299Z,5248
2018-05-04T12:49:34.193Z,5232
2018-05-04T12:50:36.065Z,5212
2018-05-04T12:51:37.954Z,5212
2018-05-04T12:52:52.121Z,5220
2018-05-04T12:53:54.017Z,5232
2018-05-04T12:54:55.918Z,5252
2018-05-04T12:55:57.810Z,5272
2018-05-04T12:56:59.627Z,5292
2018-05-04T12:58:01.464Z,5308
2018-05-04T12:59:03.355Z,5292
2018-05-04T13:00:05.250Z,5280
2018-05-04T13:01:07.140Z,5260
2018-05-04T13:02:21.311Z,5244
2018-05-04T13:03:23.182Z,5244
2018-05-04T13:04:25.135Z,5264
2018-05-04T13:05:26.926Z,5284
2018-05-04T13:06:28.762Z,5296
2018-05-04T13:07:30.576Z,5300
2018-05-04T13:08:32.472Z,5308
2018-05-04T13:09:34.366Z,5316
2018-05-04T13:10:36.237Z,5312
2018-05-04T13:11:50.402Z,5312
2018-05-04T13:12:52.281Z,5308
2018-05-04T13:13:54.147Z,5312
2018-05-04T13:14:56.044Z,5320
2018-05-04T13:15:57.877Z,5344
2018-05-04T13:16:59.692Z,5356
2018-05-04T13:18:01.590Z,5360
2018-05-04T13:19:03.478Z,5356
2018-05-04T13:20:05.345Z,5348
2018-05-04T13:21:19.493Z,5336
2018-05-04T13:22:21.364Z,5332
2018-05-04T13:23:23.270Z,5344
2018-05-04T13:24:25.127Z,5352
2018-05-04T13:25:26.957Z,5348
2018-05-04T13:26:28.771Z,5332
2018-05-04T13:27:30.644Z,5340
2018-05-04T13:28:32.520Z,5344
2018-05-04T13:29:34.387Z,5344
2018-05-04T13:30:48.532Z,5356
2018-05-04T13:31:50.406Z,5364
2018-05-04T13:32:52.300Z,5380
2018-05-04T13:33:54.172Z,5384
2018-05-04T13:34:56.042Z,5392
2018-05-04T13:35:57.882Z,5420
2018-05-04T13:36:59.749Z,5444
2018-05-04T13:38:01.674Z,5444
2018-05-04T13:39:03.541Z,5424
2018-05-04T13:40:17.727Z,5408
2018-05-04T13:41:19.599Z,5488
2018-05-04T13:42:21.530Z,5536
2018-05-04T13:43:23.635Z,5576
2018-05-04T13:44:25.520Z,5596
2018-05-04T13:45:27.277Z,5580
2018-05-04T13:46:29.172Z,5564
2018-05-04T13:47:31.041Z,5564
2018-05-04T13:48:32.919Z,5580
2018-05-04T13:49:47.127Z,5584
2018-05-04T13:50:49.022Z,5588
2018-05-04T13:51:50.920Z,5604
2018-05-04T13:52:52.816Z,5624
2018-05-04T13:53:54.671Z,5628
2018-05-04T13:54:56.494Z,5632
2018-05-04T13:55:58.388Z,5644
2018-05-04T13:57:00.283Z,5648
2018-05-04T13:58:02.177Z,5632
2018-05-04T13:59:16.347Z,5628
2018-05-04T14:00:18.309Z,5644
2018-05-04T14:01:20.288Z,5676
2018-05-04T14:02:22.261Z,5688
2018-05-04T14:03:24.205Z,5696
2018-05-04T14:04:26.148Z,5696
2018-05-04T14:05:28.161Z,5696
2018-05-04T14:06:30.134Z,5704
2018-05-04T14:07:32.110Z,5708
2018-05-04T14:08:46.436Z,5704
2018-05-04T14:09:48.416Z,5708
2018-05-04T14:10:50.444Z,5732
2018-05-04T14:11:52.386Z,5744
2018-05-04T14:12:54.316Z,5744
2018-05-04T14:13:56.326Z,5744
2018-05-04T14:14:58.485Z,5752
2018-05-04T14:16:00.475Z,5760
2018-05-04T14:17:02.462Z,5768
2018-05-04T14:18:16.793Z,5772
2018-05-04T14:19:18.824Z,5752
2018-05-04T14:20:20.805Z,5740
2018-05-04T14:21:22.807Z,5752
2018-05-04T14:22:24.726Z,5748
2018-05-04T14:23:26.675Z,5744
2018-05-04T14:24:28.695Z,5748
2018-05-04T14:25:30.657Z,5764
2018-05-04T14:26:32.569Z,5772
2018-05-04T14:27:46.944Z,5764
2018-05-04T14:28:48.917Z,5768
2018-05-04T14:29:50.960Z,5776
2018-05-04T14:30:52.971Z,5792
2018-05-04T14:31:55.351Z,5788
2018-05-04T14:32:57.671Z,5768
2018-05-04T14:33:59.576Z,5752
2018-05-04T14:35:01.713Z,5736
2018-05-04T14:36:03.647Z,5740
2018-05-04T14:37:17.985Z,5752
2018-05-04T14:38:19.877Z,5756
2018-05-04T14:39:21.751Z,5756
2018-05-04T14:40:23.645Z,5752
2018-05-04T14:41:25.465Z,5752
2018-05-04T14:42:27.294Z,5760
2018-05-04T14:43:29.189Z,5760
2018-05-04T14:44:31.063Z,5760
2018-05-04T14:45:32.937Z,5764
2018-05-04T14:46:47.082Z,5752
2018-05-04T14:47:48.975Z,5740
2018-05-04T14:48:50.869Z,5728
2018-05-04T14:49:53.026Z,5732
2018-05-04T14:50:54.869Z,5740
2018-05-04T14:51:56.707Z,5740
2018-05-04T14:52:58.600Z,5732
2018-05-04T14:54:00.474Z,5728
2018-05-04T14:55:02.367Z,5728
2018-05-04T14:56:16.518Z,5732
2018-05-04T14:57:18.407Z,5736
2018-05-04T14:58:20.285Z,5736
2018-05-04T14:59:22.202Z,5728
2018-05-04T15:00:24.005Z,5728
2018-05-04T15:01:25.815Z,5736
2018-05-04T15:02:27.699Z,5736
2018-05-04T15:03:29.576Z,5744
2018-05-04T15:04:31.469Z,5748
2018-05-04T15:05:45.723Z,5752
2018-05-04T15:06:47.593Z,5748
2018-05-04T15:07:49.473Z,5756
2018-05-04T15:08:51.362Z,5780
2018-05-04T15:09:53.198Z,5792
2018-05-04T15:10:55.102Z,5800
2018-05-04T15:11:57.039Z,5808
2018-05-04T15:12:58.862Z,5816
2018-05-04T15:14:00.728Z,5824
2018-05-04T15:15:14.926Z,5820
2018-05-04T15:16:16.813Z,5824
2018-05-04T15:17:18.673Z,5824
2018-05-04T15:18:20.547Z,5816
2018-05-04T15:19:22.371Z,5816
2018-05-04T15:20:24.202Z,5812
2018-05-04T15:21:26.084Z,5812
2018-05-04T15:22:27.956Z,5816
2018-05-04T15:23:29.848Z,5808
2018-05-04T15:24:44.020Z,5808
2018-05-04T15:25:45.907Z,5800
2018-05-04T15:26:47.779Z,5792
2018-05-04T15:27:49.660Z,5800
2018-05-04T15:28:51.499Z,5800
2018-05-04T15:29:53.366Z,5808
2018-05-04T15:30:55.267Z,5800
2018-05-04T15:31:57.161Z,5804
2018-05-04T15:32:59.026Z,5800
2018-05-04T15:34:13.178Z,5808
2018-05-04T15:35:15.074Z,5808
2018-05-04T15:36:16.967Z,5804
2018-05-04T15:37:18.840Z,5788
2018-05-04T15:38:20.657Z,5788
2018-05-04T15:39:22.471Z,5784
2018-05-04T15:40:24.389Z,5776
2018-05-04T15:41:26.244Z,5764
2018-05-04T15:42:28.139Z,5748
2018-05-04T15:43:42.332Z,5744
2018-05-04T15:44:44.233Z,5732
2018-05-04T15:45:46.129Z,5728
2018-05-04T15:46:48.020Z,5724
2018-05-04T15:47:49.835Z,5728
2018-05-04T15:48:51.702Z,5724
2018-05-04T15:49:53.567Z,5720
2018-05-04T15:50:55.449Z,5716
2018-05-04T15:51:57.335Z,5712
2018-05-04T15:53:11.484Z,5712
2018-05-04T15:54:13.372Z,5708
2018-05-04T15:55:15.256Z,5708
2018-05-04T15:56:17.150Z,5704
2018-05-04T15:57:18.958Z,5704
2018-05-04T15:58:20.768Z,5700
2018-05-04T15:59:22.644Z,5696
2018-05-04T16:00:24.541Z,5692
2018-05-04T16:01:26.405Z,5684
2018-05-04T16:02:40.567Z,5680
2018-05-04T16:03:42.446Z,5680
2018-05-04T16:04:44.335Z,5676
2018-05-04T16:05:46.216Z,5668
2018-05-04T16:06:48.057Z,5652
2018-05-04T16:07:49.889Z,5636
2018-05-04T16:08:51.778Z,5628
2018-05-04T16:09:53.655Z,5616
2018-05-04T16:10:55.519Z,5604
2018-05-04T16:12:09.672Z,5592
2018-05-04T16:13:11.539Z,5588
2018-05-04T16:14:13.410Z,5588
2018-05-04T16:15:15.282Z,5576
2018-05-04T16:16:17.242Z,5568
2018-05-04T16:17:19.074Z,5556
2018-05-04T16:18:20.945Z,5540
2018-05-04T16:19:22.837Z,5524
2018-05-04T16:20:24.700Z,5500
2018-05-04T16:21:38.847Z,5480
2018-05-04T16:22:40.721Z,5460
2018-05-04T16:23:42.589Z,5452
2018-05-04T16:24:44.463Z,5440
2018-05-04T16:25:46.276Z,5440
2018-05-04T16:26:48.090Z,5440
2018-05-04T16:27:49.988Z,5444
2018-05-04T16:28:51.884Z,5444
2018-05-04T16:29:53.748Z,5448
2018-05-04T16:31:07.900Z,5452
2018-05-04T16:32:09.792Z,5456
2018-05-04T16:33:11.681Z,5456
2018-05-04T16:34:13.556Z,5460
2018-05-04T16:35:15.397Z,5468
2018-05-04T16:36:17.231Z,5468
2018-05-04T16:37:19.125Z,5476
2018-05-04T16:38:21.022Z,5480
2018-05-04T16:39:22.917Z,5492
2018-05-04T16:40:37.239Z,5492
2018-05-04T16:41:39.210Z,5492
2018-05-04T16:42:41.059Z,5488
2018-05-04T16:43:42.953Z,5484
2018-05-04T16:44:44.787Z,5468
2018-05-04T16:45:46.599Z,5456
2018-05-04T16:46:48.492Z,5440
2018-05-04T16:47:50.370Z,5428
2018-05-04T16:48:52.265Z,5420
2018-05-04T16:50:06.415Z,5404
2018-05-04T16:51:08.304Z,5392
2018-05-04T16:52:10.182Z,5376
2018-05-04T16:53:12.095Z,5356
2018-05-04T16:54:13.917Z,5328
2018-05-04T16:55:16.241Z,5312
2018-05-04T16:56:18.103Z,5292
2018-05-04T16:57:20.697Z,5276
2018-05-04T16:58:23.036Z,5256
2018-05-04T16:59:37.179Z,5228
2018-05-04T17:00:39.055Z,5192
2018-05-04T17:01:40.923Z,5160
2018-05-04T17:02:42.822Z,5120
2018-05-04T17:03:44.632Z,5084
2018-05-04T17:04:46.452Z,5040
2018-05-04T17:05:48.350Z,5004
2018-05-04T17:06:50.220Z,4964
2018-05-04T17:07:52.096Z,4932
2018-05-04T17:09:06.295Z,4884
2018-05-04T17:10:08.135Z,4836
2018-05-04T17:11:10.007Z,4792
2018-05-04T17:12:12.067Z,4736
2018-05-04T17:13:13.842Z,4688
2018-05-04T17:14:15.655Z,4628
2018-05-04T17:15:17.534Z,4572
2018-05-04T17:16:19.431Z,4520
2018-05-04T17:17:21.333Z,4464
2018-05-04T17:18:35.850Z,4400
2018-05-04T17:19:37.748Z,4340
2018-05-04T17:20:39.635Z,4284
2018-05-04T17:21:41.533Z,4224
2018-05-04T17:24:00.047Z,4088
2018-05-04T17:25:01.944Z,4032
2018-05-04T17:26:03.843Z,3968
2018-05-04T17:27:05.738Z,3912
2018-05-04T17:28:19.928Z,3844
2018-05-04T17:29:21.873Z,3780
2018-05-04T17:30:23.806Z,3716
2018-05-04T17:31:25.702Z,3656
2018-05-04T17:32:27.523Z,3600
2018-05-04T17:33:29.334Z,3552
2018-05-04T17:34:31.216Z,3512
2018-05-04T17:35:33.090Z,3476
2018-05-04T17:36:34.956Z,3496
2018-05-04T17:37:49.103Z,3564
2018-05-04T17:38:51.020Z,3528
2018-05-04T17:39:52.852Z,3404
2018-05-04T17:40:54.750Z,3256
2018-05-04T17:41:56.558Z,3296
2018-05-04T17:42:58.373Z,3152
2018-05-04T17:44:00.270Z,2968
2018-05-04T17:45:02.159Z,3012
2018-05-04T17:46:04.034Z,2852
2018-05-04T17:47:18.295Z,2736
2018-05-04T17:48:20.079Z,2636
2018-05-04T17:49:21.941Z,2484
2018-05-04T17:50:23.813Z,2440
2018-05-04T17:51:25.626Z,2296
2018-05-04T17:52:27.440Z,2184
2018-05-04T17:53:29.332Z,2140
2018-05-04T17:54:31.207Z,1996
2018-05-04T17:55:33.105Z,1868
2018-05-04T17:56:47.274Z,1736
2018-05-04T17:57:49.168Z,1608
2018-05-04T17:58:51.059Z,1544
2018-05-04T17:59:52.930Z,1508
2018-05-04T18:00:54.748Z,1408
2018-05-04T18:01:56.553Z,1336
2018-05-04T18:02:58.461Z,1280
2018-05-04T18:04:00.333Z,1184
2018-05-04T18:05:02.207Z,1112
2018-05-04T18:06:16.405Z,1028
2018-05-04T18:07:18.274Z,968
2018-05-04T18:08:20.143Z,920
2018-05-04T18:09:22.039Z,876
2018-05-04T18:10:23.871Z,820
2018-05-04T18:11:25.681Z,776
2018-05-04T18:12:27.574Z,732
2018-05-04T18:13:29.445Z,688
2018-05-04T18:14:31.373Z,648
2018-05-04T18:15:45.607Z,600
2018-05-04T18:16:47.502Z,564
2018-05-04T18:17:49.400Z,528
2018-05-04T18:18:51.288Z,492
2018-05-04T18:19:53.093Z,456
2018-05-04T18:20:54.906Z,428
2018-05-04T18:21:56.801Z,392
2018-05-04T18:22:58.690Z,364
2018-05-04T18:24:00.556Z,336
2018-05-04T18:25:14.702Z,304
2018-05-04T18:26:16.572Z,280
2018-05-04T18:27:18.466Z,252
2018-05-04T18:28:20.337Z,232
2018-05-04T18:29:22.169Z,208
2018-05-04T18:30:23.972Z,192
2018-05-04T18:31:25.845Z,172
2018-05-04T18:32:27.735Z,156
2018-05-04T18:33:29.597Z,140
2018-05-04T18:34:43.740Z,124
2018-05-04T18:35:45.618Z,108
2018-05-04T18:36:47.473Z,100
2018-05-04T18:37:49.342Z,88
2018-05-04T18:38:51.172Z,80
2018-05-04T18:39:52.980Z,72
2018-05-04T18:40:54.866Z,60
2018-05-04T18:41:56.743Z,52
2018-05-04T18:42:58.639Z,48
2018-05-04T18:44:12.796Z,40
2018-05-04T18:45:14.687Z,36
2018-05-04T18:46:16.550Z,28
2018-05-04T18:47:18.417Z,24
2018-05-04T18:48:20.274Z,24
2018-05-04T18:49:22.059Z,20
